createdAt,value
2019-02-07T00:01:32.413Z,6.45
2019-02-07T00:07:54.193Z,4.12
2019-02-07T00:13:39.584Z,2.47
2019-02-07T00:19:37.151Z,1.37
2019-02-07T00:25:47.062Z,1.02
2019-02-07T00:31:42.998Z,1.30
2019-02-07T00:38:05.115Z,1.32
2019-02-07T00:44:01.890Z,0.82
2019-02-07T00:50:11.306Z,1.20
2019-02-07T00:55:57.581Z,1.35
2019-02-07T01:01:42.058Z,1.10
2019-02-07T01:07:54.846Z,1.55
2019-02-07T01:13:49.348Z,1.90
2019-02-07T01:19:57.739Z,1.67
2019-02-07T01:25:52.711Z,1.80
2019-02-07T01:31:29.816Z,1.50
2019-02-07T01:37:26.765Z,1.20
2019-02-07T01:43:22.118Z,0.80
2019-02-07T01:49:31.318Z,0.90
2019-02-07T01:55:29.063Z,1.52
2019-02-07T02:01:37.752Z,1.57
2019-02-07T02:07:37.521Z,1.95
2019-02-07T02:13:23.728Z,1.30
2019-02-07T02:19:47.500Z,1.40
2019-02-07T02:25:45.897Z,1.40
2019-02-07T02:31:32.737Z,1.75
2019-02-07T02:37:30.249Z,2.10
2019-02-07T02:43:25.754Z,2.45
2019-02-07T02:49:32.173Z,3.22
2019-02-07T02:55:39.817Z,3.67
2019-02-07T03:02:02.849Z,3.70
2019-02-07T03:08:22.483Z,4.50
2019-02-07T03:14:56.415Z,5.12
2019-02-07T03:21:17.031Z,5.40
2019-02-07T03:28:02.696Z,5.58
2019-02-07T03:34:27.773Z,5.60
2019-02-07T03:41:04.843Z,6.72
2019-02-07T03:47:22.632Z,6.78
2019-02-07T03:53:56.728Z,6.45
2019-02-07T04:00:42.486Z,7.60
2019-02-07T04:06:55.181Z,7.75
2019-02-07T04:13:23.024Z,8.75
2019-02-07T04:19:37.992Z,7.35
2019-02-07T04:26:14.661Z,8.40
2019-02-07T04:32:26.340Z,8.15
2019-02-07T04:38:43.071Z,7.75
2019-02-07T04:44:58.102Z,9.48
2019-02-07T04:51:10.475Z,9.38
2019-02-07T04:57:28.429Z,10.25
2019-02-07T05:03:45.956Z,9.25
2019-02-07T05:10:06.184Z,11.12
2019-02-07T05:16:22.455Z,9.53
2019-02-07T05:22:27.799Z,11.65
2019-02-07T05:28:43.630Z,12.63
2019-02-07T05:35:13.639Z,12.93
2019-02-07T05:41:29.361Z,13.03
2019-02-07T05:47:46.092Z,13.25
2019-02-07T05:54:07.140Z,13.75
2019-02-07T06:00:44.807Z,13.72
2019-02-07T06:06:51.432Z,14.40
2019-02-07T06:13:17.518Z,14.58
2019-02-07T06:19:43.081Z,12.50
2019-02-07T06:26:09.209Z,14.18
2019-02-07T06:32:26.641Z,14.45
2019-02-07T06:41:49.182Z,14.70
2019-02-07T06:47:50.102Z,14.70
2019-02-07T06:54:19.974Z,16.90
2019-02-07T07:00:31.284Z,18.07
2019-02-07T07:06:59.167Z,17.85
2019-02-07T07:13:16.705Z,18.25
2019-02-07T07:20:09.994Z,21.12
2019-02-07T07:26:22.320Z,17.35
2019-02-07T07:33:05.323Z,16.30
2019-02-07T07:39:28.464Z,27.32
2019-02-07T07:45:54.544Z,28.67
2019-02-07T07:52:27.347Z,35.33
2019-02-07T07:58:57.157Z,29.18
2019-02-07T08:05:19.086Z,31.17
2019-02-07T08:11:40.261Z,34.15
2019-02-07T08:17:55.553Z,31.90
2019-02-07T08:24:05.972Z,30.48
2019-02-07T08:30:36.403Z,12.40
2019-02-07T08:36:47.369Z,11.30
2019-02-07T08:51:55.510Z,11.22
2019-02-07T08:58:11.207Z,9.70
2019-02-07T09:04:41.043Z,12.98
2019-02-07T09:11:13.940Z,14.40
2019-02-07T09:17:38.853Z,12.15
2019-02-07T09:24:17.700Z,13.70
2019-02-07T09:30:38.501Z,15.07
2019-02-07T09:37:21.664Z,18.00
2019-02-07T09:46:47.341Z,13.98
2019-02-07T09:53:24.095Z,13.00
2019-02-07T09:59:36.907Z,11.40
2019-02-07T10:06:05.785Z,12.10
2019-02-07T10:12:32.039Z,11.78
2019-02-07T10:18:46.387Z,9.30
2019-02-07T10:25:21.001Z,10.00
2019-02-07T10:31:49.854Z,10.88
2019-02-07T10:38:28.031Z,12.88
2019-02-07T10:44:49.612Z,13.10
2019-02-07T10:51:22.468Z,11.00
2019-02-07T10:57:39.379Z,11.40
2019-02-07T11:04:03.003Z,18.05
2019-02-07T11:10:28.808Z,19.20
2019-02-07T11:16:48.827Z,10.20
2019-02-07T11:23:10.607Z,12.63
2019-02-07T11:29:38.441Z,9.95
2019-02-07T11:35:52.653Z,11.25
2019-02-07T11:42:26.062Z,11.18
2019-02-07T11:48:21.218Z,10.78
2019-02-07T11:54:26.152Z,8.73
2019-02-07T12:00:51.738Z,10.28
2019-02-07T12:07:30.689Z,10.30
2019-02-07T12:13:47.395Z,10.88
2019-02-07T12:20:16.269Z,8.93
2019-02-07T12:26:31.955Z,10.65
2019-02-07T12:32:38.655Z,9.33
2019-02-07T12:38:51.115Z,9.10
2019-02-07T12:45:04.603Z,9.80
2019-02-07T12:54:51.085Z,10.43
2019-02-07T13:01:07.506Z,9.98
2019-02-07T13:07:34.246Z,13.60
2019-02-07T13:13:50.118Z,14.95
2019-02-07T13:20:04.764Z,14.70
2019-02-07T13:26:43.998Z,16.30
2019-02-07T13:33:15.982Z,13.55
2019-02-07T13:39:33.629Z,12.40
2019-02-07T13:45:55.122Z,10.53
2019-02-07T13:52:40.190Z,10.90
2019-02-07T13:58:55.899Z,10.53
2019-02-07T14:05:16.749Z,10.50
2019-02-07T14:11:32.408Z,10.70
2019-02-07T14:17:39.360Z,12.10
2019-02-07T14:24:02.949Z,10.90
2019-02-07T14:30:34.994Z,9.33
2019-02-07T14:40:07.594Z,9.48
2019-02-07T14:46:30.137Z,8.50
2019-02-07T14:52:29.417Z,9.83
2019-02-07T14:58:39.748Z,10.40
2019-02-07T15:04:37.912Z,10.08
2019-02-07T15:10:58.925Z,13.32
2019-02-07T15:20:25.822Z,12.98
2019-02-07T15:26:28.753Z,13.00
2019-02-07T15:32:24.517Z,14.18
2019-02-07T15:38:14.104Z,15.03
2019-02-07T15:44:12.414Z,13.43
2019-02-07T15:50:11.736Z,15.10
2019-02-07T15:56:19.874Z,13.45
2019-02-07T16:02:37.393Z,16.05
2019-02-07T16:08:35.235Z,15.28
2019-02-07T16:14:32.652Z,14.78
2019-02-07T16:20:34.051Z,14.38
2019-02-07T16:26:19.782Z,13.28
2019-02-07T16:32:30.917Z,13.98
2019-02-07T16:38:25.627Z,14.55
2019-02-07T16:44:47.629Z,16.17
2019-02-07T16:50:35.125Z,18.23
2019-02-07T16:56:21.541Z,17.30
2019-02-07T17:02:32.180Z,15.20
2019-02-07T17:08:26.455Z,16.10
2019-02-07T17:14:47.514Z,17.67
2019-02-07T17:20:43.521Z,17.50
2019-02-07T17:26:47.405Z,16.82
2019-02-07T17:32:48.973Z,17.87
2019-02-07T17:38:45.687Z,20.50
2019-02-07T17:44:45.063Z,20.45
2019-02-07T17:50:57.739Z,25.65
2019-02-07T17:56:43.898Z,24.82
2019-02-07T18:02:43.761Z,23.90
2019-02-07T18:08:42.266Z,26.23
2019-02-07T18:14:53.983Z,24.25
2019-02-07T18:20:54.507Z,25.10
2019-02-07T18:26:57.116Z,22.02
2019-02-07T18:32:42.379Z,20.10
2019-02-07T18:38:57.156Z,20.57
2019-02-07T18:44:55.811Z,18.92
2019-02-07T18:50:52.363Z,16.97
2019-02-07T18:56:52.768Z,17.57
2019-02-07T19:02:36.360Z,18.35
2019-02-07T19:08:34.833Z,18.25
2019-02-07T19:14:43.474Z,17.90
2019-02-07T19:21:04.336Z,15.05
2019-02-07T19:27:12.177Z,13.35
2019-02-07T19:33:11.492Z,15.68
2019-02-07T19:39:33.456Z,14.75
2019-02-07T19:45:29.908Z,15.48
2019-02-07T19:51:38.418Z,15.68
2019-02-07T19:57:38.033Z,16.40
2019-02-07T20:03:37.009Z,16.37
2019-02-07T20:09:35.035Z,16.82
2019-02-07T20:15:45.968Z,19.00
2019-02-07T20:21:41.498Z,22.27
2019-02-07T20:27:25.710Z,20.40
2019-02-07T20:33:23.221Z,20.77
2019-02-07T20:39:43.836Z,19.20
2019-02-07T20:45:43.579Z,18.57
2019-02-07T20:51:28.964Z,18.12
2019-02-07T20:57:15.396Z,18.75
2019-02-07T21:03:15.110Z,17.65
2019-02-07T21:09:15.748Z,16.07
2019-02-07T21:15:06.258Z,15.10
2019-02-07T21:21:04.786Z,14.20
2019-02-07T21:26:38.116Z,14.50
2019-02-07T21:32:35.667Z,15.30
2019-02-07T21:38:34.529Z,17.17
2019-02-07T21:44:22.419Z,13.35
2019-02-07T21:50:27.129Z,10.93
2019-02-07T21:56:40.753Z,12.43
2019-02-07T22:02:37.618Z,10.30
2019-02-07T22:08:33.963Z,10.82
2019-02-07T22:14:34.285Z,11.85
2019-02-07T22:20:32.433Z,10.85
2019-02-07T22:26:27.439Z,12.13
2019-02-07T22:32:24.967Z,12.53
2019-02-07T22:38:23.132Z,12.25
2019-02-07T22:44:13.988Z,14.07
2019-02-07T22:50:18.646Z,13.50
2019-02-07T22:56:29.232Z,11.73
2019-02-07T23:02:26.776Z,13.70
2019-02-07T23:08:26.370Z,14.90
2019-02-07T23:14:45.366Z,18.07
2019-02-07T23:20:41.028Z,17.92
2019-02-07T23:26:53.294Z,18.15
2019-02-07T23:32:50.110Z,17.32
2019-02-07T23:38:48.477Z,15.18
2019-02-07T23:44:33.418Z,15.72
2019-02-07T23:50:34.609Z,14.78
2019-02-07T23:56:18.968Z,15.58
